sensor_id;sensor_type;location;lat;lon;timestamp;P1;durP1;ratioP1;P2;durP2;ratioP2
2434;SDS011;1228;51.022;6.764;2024-01-30T00:01:38;16.53;;;14.13;;
2434;SDS011;1228;51.022;6.764;2024-01-30T00:04:03;17.87;;;13.87;;
2434;SDS011;1228;51.022;6.764;2024-01-30T00:06:29;20.20;;;13.70;;
2434;SDS011;1228;51.022;6.764;2024-01-30T00:08:55;20.60;;;13.97;;
2434;SDS011;1228;51.022;6.764;2024-01-30T00:11:21;15.90;;;13.27;;
2434;SDS011;1228;51.022;6.764;2024-01-30T00:13:47;21.27;;;13.93;;
2434;SDS011;1228;51.022;6.764;2024-01-30T00:16:20;18.10;;;13.87;;
2434;SDS011;1228;51.022;6.764;2024-01-30T00:18:46;14.80;;;13.27;;
2434;SDS011;1228;51.022;6.764;2024-01-30T00:21:12;17.17;;;13.07;;
2434;SDS011;1228;51.022;6.764;2024-01-30T00:23:38;17.17;;;13.13;;
2434;SDS011;1228;51.022;6.764;2024-01-30T00:26:03;16.63;;;13.07;;
2434;SDS011;1228;51.022;6.764;2024-01-30T00:28:30;16.20;;;14.23;;
2434;SDS011;1228;51.022;6.764;2024-01-30T00:30:57;18.23;;;13.37;;
2434;SDS011;1228;51.022;6.764;2024-01-30T00:33:24;16.03;;;13.90;;
2434;SDS011;1228;51.022;6.764;2024-01-30T00:35:50;20.80;;;14.63;;
2434;SDS011;1228;51.022;6.764;2024-01-30T00:38:15;17.80;;;14.10;;
2434;SDS011;1228;51.022;6.764;2024-01-30T00:40:41;20.17;;;15.20;;
2434;SDS011;1228;51.022;6.764;2024-01-30T00:43:06;23.43;;;15.07;;
2434;SDS011;1228;51.022;6.764;2024-01-30T00:45:32;18.70;;;14.80;;
2434;SDS011;1228;51.022;6.764;2024-01-30T00:47:58;16.40;;;14.17;;
2434;SDS011;1228;51.022;6.764;2024-01-30T00:50:24;18.47;;;13.83;;
2434;SDS011;1228;51.022;6.764;2024-01-30T00:52:49;18.73;;;14.73;;
2434;SDS011;1228;51.022;6.764;2024-01-30T00:55:15;18.13;;;13.97;;
2434;SDS011;1228;51.022;6.764;2024-01-30T00:57:40;19.47;;;14.53;;
2434;SDS011;1228;51.022;6.764;2024-01-30T01:00:07;21.83;;;14.37;;
2434;SDS011;1228;51.022;6.764;2024-01-30T01:02:34;21.50;;;15.07;;
2434;SDS011;1228;51.022;6.764;2024-01-30T01:05:01;18.30;;;14.37;;
2434;SDS011;1228;51.022;6.764;2024-01-30T01:07:27;21.47;;;15.00;;
2434;SDS011;1228;51.022;6.764;2024-01-30T01:09:52;17.10;;;14.93;;
2434;SDS011;1228;51.022;6.764;2024-01-30T01:12:18;19.27;;;14.47;;
2434;SDS011;1228;51.022;6.764;2024-01-30T01:14:43;23.80;;;15.37;;
2434;SDS011;1228;51.022;6.764;2024-01-30T01:17:09;19.03;;;14.93;;
2434;SDS011;1228;51.022;6.764;2024-01-30T01:19:35;21.40;;;15.30;;
2434;SDS011;1228;51.022;6.764;2024-01-30T01:22:00;20.37;;;15.57;;
2434;SDS011;1228;51.022;6.764;2024-01-30T01:24:26;19.77;;;14.77;;
2434;SDS011;1228;51.022;6.764;2024-01-30T01:26:51;20.47;;;14.67;;
2434;SDS011;1228;51.022;6.764;2024-01-30T01:29:17;20.00;;;14.53;;
2434;SDS011;1228;51.022;6.764;2024-01-30T01:31:43;20.10;;;15.23;;
2434;SDS011;1228;51.022;6.764;2024-01-30T01:34:12;18.53;;;16.07;;
2434;SDS011;1228;51.022;6.764;2024-01-30T01:36:39;23.83;;;15.53;;
2434;SDS011;1228;51.022;6.764;2024-01-30T01:39:05;18.00;;;15.93;;
2434;SDS011;1228;51.022;6.764;2024-01-30T01:41:31;21.37;;;14.63;;
2434;SDS011;1228;51.022;6.764;2024-01-30T01:43:57;18.40;;;15.73;;
2434;SDS011;1228;51.022;6.764;2024-01-30T01:46:26;21.17;;;16.00;;
2434;SDS011;1228;51.022;6.764;2024-01-30T01:48:52;20.13;;;15.87;;
2434;SDS011;1228;51.022;6.764;2024-01-30T01:51:19;18.93;;;15.60;;
2434;SDS011;1228;51.022;6.764;2024-01-30T01:53:45;17.03;;;14.67;;
2434;SDS011;1228;51.022;6.764;2024-01-30T01:56:11;21.27;;;14.90;;
2434;SDS011;1228;51.022;6.764;2024-01-30T01:58:36;19.90;;;15.77;;
2434;SDS011;1228;51.022;6.764;2024-01-30T02:01:03;23.10;;;15.23;;
2434;SDS011;1228;51.022;6.764;2024-01-30T02:03:30;17.57;;;15.20;;
2434;SDS011;1228;51.022;6.764;2024-01-30T02:05:56;18.27;;;15.03;;
2434;SDS011;1228;51.022;6.764;2024-01-30T02:08:22;28.23;;;16.13;;
2434;SDS011;1228;51.022;6.764;2024-01-30T02:10:49;22.33;;;15.27;;
2434;SDS011;1228;51.022;6.764;2024-01-30T02:13:14;21.20;;;15.53;;
2434;SDS011;1228;51.022;6.764;2024-01-30T02:15:40;18.33;;;15.53;;
2434;SDS011;1228;51.022;6.764;2024-01-30T02:18:06;19.63;;;15.73;;
2434;SDS011;1228;51.022;6.764;2024-01-30T02:20:32;23.50;;;16.37;;
2434;SDS011;1228;51.022;6.764;2024-01-30T02:23:00;20.10;;;15.80;;
2434;SDS011;1228;51.022;6.764;2024-01-30T02:25:30;24.83;;;16.43;;
2434;SDS011;1228;51.022;6.764;2024-01-30T02:27:58;21.20;;;15.00;;
2434;SDS011;1228;51.022;6.764;2024-01-30T02:30:23;20.90;;;16.17;;
2434;SDS011;1228;51.022;6.764;2024-01-30T02:32:49;22.93;;;15.50;;
2434;SDS011;1228;51.022;6.764;2024-01-30T02:35:15;20.90;;;15.70;;
2434;SDS011;1228;51.022;6.764;2024-01-30T02:37:40;19.50;;;14.40;;
2434;SDS011;1228;51.022;6.764;2024-01-30T02:40:06;21.97;;;16.17;;
2434;SDS011;1228;51.022;6.764;2024-01-30T02:42:33;19.07;;;15.17;;
2434;SDS011;1228;51.022;6.764;2024-01-30T02:44:59;22.43;;;15.83;;
2434;SDS011;1228;51.022;6.764;2024-01-30T02:47:25;25.17;;;16.00;;
2434;SDS011;1228;51.022;6.764;2024-01-30T02:49:50;22.00;;;16.10;;
2434;SDS011;1228;51.022;6.764;2024-01-30T02:52:16;24.07;;;16.17;;
2434;SDS011;1228;51.022;6.764;2024-01-30T02:54:42;19.73;;;15.27;;
2434;SDS011;1228;51.022;6.764;2024-01-30T02:57:07;20.13;;;15.90;;
2434;SDS011;1228;51.022;6.764;2024-01-30T02:59:33;20.10;;;15.50;;
2434;SDS011;1228;51.022;6.764;2024-01-30T03:02:00;25.03;;;15.93;;
2434;SDS011;1228;51.022;6.764;2024-01-30T03:04:26;23.87;;;16.63;;
2434;SDS011;1228;51.022;6.764;2024-01-30T03:06:55;21.33;;;16.70;;
2434;SDS011;1228;51.022;6.764;2024-01-30T03:09:20;19.20;;;15.07;;
2434;SDS011;1228;51.022;6.764;2024-01-30T03:11:46;20.10;;;16.53;;
2434;SDS011;1228;51.022;6.764;2024-01-30T03:14:12;17.70;;;15.27;;
2434;SDS011;1228;51.022;6.764;2024-01-30T03:16:37;22.17;;;15.80;;
2434;SDS011;1228;51.022;6.764;2024-01-30T03:19:04;20.00;;;15.33;;
2434;SDS011;1228;51.022;6.764;2024-01-30T03:21:32;19.30;;;15.10;;
2434;SDS011;1228;51.022;6.764;2024-01-30T03:23:58;20.90;;;15.80;;
2434;SDS011;1228;51.022;6.764;2024-01-30T03:26:24;22.30;;;16.70;;
2434;SDS011;1228;51.022;6.764;2024-01-30T03:28:50;21.73;;;16.10;;
2434;SDS011;1228;51.022;6.764;2024-01-30T03:31:16;20.47;;;17.27;;
2434;SDS011;1228;51.022;6.764;2024-01-30T03:33:43;22.80;;;15.83;;
2434;SDS011;1228;51.022;6.764;2024-01-30T03:36:08;21.33;;;16.33;;
2434;SDS011;1228;51.022;6.764;2024-01-30T03:38:34;23.80;;;16.87;;
2434;SDS011;1228;51.022;6.764;2024-01-30T03:41:01;21.57;;;15.73;;
2434;SDS011;1228;51.022;6.764;2024-01-30T03:43:26;20.20;;;15.20;;
2434;SDS011;1228;51.022;6.764;2024-01-30T03:45:52;22.03;;;16.23;;
2434;SDS011;1228;51.022;6.764;2024-01-30T03:48:18;21.77;;;15.77;;
2434;SDS011;1228;51.022;6.764;2024-01-30T03:50:45;17.80;;;15.40;;
2434;SDS011;1228;51.022;6.764;2024-01-30T03:53:11;18.90;;;15.37;;
2434;SDS011;1228;51.022;6.764;2024-01-30T03:55:37;22.53;;;16.03;;
2434;SDS011;1228;51.022;6.764;2024-01-30T03:58:03;20.03;;;15.97;;
2434;SDS011;1228;51.022;6.764;2024-01-30T04:00:29;21.37;;;16.33;;
2434;SDS011;1228;51.022;6.764;2024-01-30T04:02:54;20.90;;;14.93;;
2434;SDS011;1228;51.022;6.764;2024-01-30T04:05:20;18.57;;;14.40;;
2434;SDS011;1228;51.022;6.764;2024-01-30T04:07:46;17.30;;;14.73;;
2434;SDS011;1228;51.022;6.764;2024-01-30T04:10:11;21.70;;;15.23;;
2434;SDS011;1228;51.022;6.764;2024-01-30T04:12:37;19.53;;;15.13;;
2434;SDS011;1228;51.022;6.764;2024-01-30T04:15:03;17.80;;;13.87;;
2434;SDS011;1228;51.022;6.764;2024-01-30T04:17:29;21.17;;;15.00;;
2434;SDS011;1228;51.022;6.764;2024-01-30T04:19:54;20.33;;;15.27;;
2434;SDS011;1228;51.022;6.764;2024-01-30T04:22:20;20.87;;;14.93;;
2434;SDS011;1228;51.022;6.764;2024-01-30T04:24:46;26.60;;;16.07;;
2434;SDS011;1228;51.022;6.764;2024-01-30T04:27:12;23.23;;;14.87;;
2434;SDS011;1228;51.022;6.764;2024-01-30T04:29:38;21.93;;;14.67;;
2434;SDS011;1228;51.022;6.764;2024-01-30T04:32:03;18.57;;;13.97;;
2434;SDS011;1228;51.022;6.764;2024-01-30T04:34:29;22.83;;;15.43;;
2434;SDS011;1228;51.022;6.764;2024-01-30T04:36:55;19.10;;;15.13;;
2434;SDS011;1228;51.022;6.764;2024-01-30T04:39:21;20.87;;;15.00;;
2434;SDS011;1228;51.022;6.764;2024-01-30T04:41:47;18.80;;;14.50;;
2434;SDS011;1228;51.022;6.764;2024-01-30T04:44:13;19.60;;;14.43;;
2434;SDS011;1228;51.022;6.764;2024-01-30T04:46:39;15.90;;;13.97;;
2434;SDS011;1228;51.022;6.764;2024-01-30T04:49:04;17.87;;;14.37;;
2434;SDS011;1228;51.022;6.764;2024-01-30T04:51:32;18.73;;;14.17;;
2434;SDS011;1228;51.022;6.764;2024-01-30T04:53:59;18.07;;;14.83;;
2434;SDS011;1228;51.022;6.764;2024-01-30T04:56:24;20.87;;;15.07;;
2434;SDS011;1228;51.022;6.764;2024-01-30T04:58:50;15.47;;;13.43;;
2434;SDS011;1228;51.022;6.764;2024-01-30T05:01:16;18.73;;;14.53;;
2434;SDS011;1228;51.022;6.764;2024-01-30T05:03:42;18.90;;;14.60;;
2434;SDS011;1228;51.022;6.764;2024-01-30T05:06:08;20.63;;;13.80;;
2434;SDS011;1228;51.022;6.764;2024-01-30T05:08:33;17.53;;;13.90;;
2434;SDS011;1228;51.022;6.764;2024-01-30T05:11:01;19.47;;;14.57;;
2434;SDS011;1228;51.022;6.764;2024-01-30T05:13:29;17.27;;;13.83;;
2434;SDS011;1228;51.022;6.764;2024-01-30T05:15:58;16.27;;;13.70;;
2434;SDS011;1228;51.022;6.764;2024-01-30T05:18:24;19.97;;;14.80;;
2434;SDS011;1228;51.022;6.764;2024-01-30T05:20:50;16.33;;;14.10;;
2434;SDS011;1228;51.022;6.764;2024-01-30T05:23:16;17.53;;;13.80;;
2434;SDS011;1228;51.022;6.764;2024-01-30T05:25:41;20.60;;;13.97;;
2434;SDS011;1228;51.022;6.764;2024-01-30T05:28:07;16.57;;;13.37;;
2434;SDS011;1228;51.022;6.764;2024-01-30T05:30:32;18.37;;;13.90;;
2434;SDS011;1228;51.022;6.764;2024-01-30T05:33:00;16.70;;;13.20;;
2434;SDS011;1228;51.022;6.764;2024-01-30T05:35:25;20.87;;;13.87;;
2434;SDS011;1228;51.022;6.764;2024-01-30T05:37:52;17.40;;;13.97;;
2434;SDS011;1228;51.022;6.764;2024-01-30T05:40:17;18.60;;;13.40;;
2434;SDS011;1228;51.022;6.764;2024-01-30T05:42:43;20.60;;;13.60;;
2434;SDS011;1228;51.022;6.764;2024-01-30T05:45:08;16.67;;;13.67;;
2434;SDS011;1228;51.022;6.764;2024-01-30T05:47:35;16.47;;;14.20;;
2434;SDS011;1228;51.022;6.764;2024-01-30T05:50:00;15.97;;;12.53;;
2434;SDS011;1228;51.022;6.764;2024-01-30T05:52:26;16.97;;;12.73;;
2434;SDS011;1228;51.022;6.764;2024-01-30T05:54:51;17.57;;;13.20;;
2434;SDS011;1228;51.022;6.764;2024-01-30T05:57:17;15.10;;;12.30;;
2434;SDS011;1228;51.022;6.764;2024-01-30T05:59:44;17.67;;;13.00;;
2434;SDS011;1228;51.022;6.764;2024-01-30T06:02:10;16.67;;;13.50;;
2434;SDS011;1228;51.022;6.764;2024-01-30T06:04:36;17.30;;;12.17;;
2434;SDS011;1228;51.022;6.764;2024-01-30T06:07:02;15.23;;;12.57;;
2434;SDS011;1228;51.022;6.764;2024-01-30T06:09:28;15.70;;;12.93;;
2434;SDS011;1228;51.022;6.764;2024-01-30T06:11:54;15.30;;;12.77;;
2434;SDS011;1228;51.022;6.764;2024-01-30T06:14:20;18.30;;;13.60;;
2434;SDS011;1228;51.022;6.764;2024-01-30T06:16:46;18.50;;;12.57;;
2434;SDS011;1228;51.022;6.764;2024-01-30T06:19:11;15.03;;;12.27;;
2434;SDS011;1228;51.022;6.764;2024-01-30T06:21:37;16.57;;;12.50;;
2434;SDS011;1228;51.022;6.764;2024-01-30T06:24:03;17.37;;;13.17;;
2434;SDS011;1228;51.022;6.764;2024-01-30T06:26:29;13.73;;;12.23;;
2434;SDS011;1228;51.022;6.764;2024-01-30T06:28:55;16.83;;;13.03;;
2434;SDS011;1228;51.022;6.764;2024-01-30T06:31:21;18.67;;;13.33;;
2434;SDS011;1228;51.022;6.764;2024-01-30T06:33:49;14.97;;;12.50;;
2434;SDS011;1228;51.022;6.764;2024-01-30T06:36:15;18.57;;;12.43;;
2434;SDS011;1228;51.022;6.764;2024-01-30T06:38:41;16.73;;;12.60;;
2434;SDS011;1228;51.022;6.764;2024-01-30T06:41:08;15.27;;;12.30;;
2434;SDS011;1228;51.022;6.764;2024-01-30T06:43:34;16.03;;;12.83;;
2434;SDS011;1228;51.022;6.764;2024-01-30T06:45:59;15.17;;;12.93;;
2434;SDS011;1228;51.022;6.764;2024-01-30T06:48:26;16.20;;;12.00;;
2434;SDS011;1228;51.022;6.764;2024-01-30T06:50:55;16.90;;;12.73;;
2434;SDS011;1228;51.022;6.764;2024-01-30T06:53:22;15.70;;;12.83;;
2434;SDS011;1228;51.022;6.764;2024-01-30T06:55:48;18.17;;;13.93;;
2434;SDS011;1228;51.022;6.764;2024-01-30T06:58:13;19.30;;;13.27;;
2434;SDS011;1228;51.022;6.764;2024-01-30T07:00:39;15.33;;;12.30;;
2434;SDS011;1228;51.022;6.764;2024-01-30T07:03:05;16.27;;;12.67;;
2434;SDS011;1228;51.022;6.764;2024-01-30T07:05:31;19.57;;;12.57;;
2434;SDS011;1228;51.022;6.764;2024-01-30T07:07:58;17.00;;;12.57;;
2434;SDS011;1228;51.022;6.764;2024-01-30T07:10:23;18.60;;;12.10;;
2434;SDS011;1228;51.022;6.764;2024-01-30T07:12:49;17.50;;;13.23;;
2434;SDS011;1228;51.022;6.764;2024-01-30T07:15:15;17.17;;;12.67;;
2434;SDS011;1228;51.022;6.764;2024-01-30T07:17:44;15.50;;;11.83;;
2434;SDS011;1228;51.022;6.764;2024-01-30T07:20:10;16.10;;;12.23;;
2434;SDS011;1228;51.022;6.764;2024-01-30T07:22:37;16.67;;;12.67;;
2434;SDS011;1228;51.022;6.764;2024-01-30T07:25:03;19.50;;;12.83;;
2434;SDS011;1228;51.022;6.764;2024-01-30T07:27:28;17.13;;;12.50;;
2434;SDS011;1228;51.022;6.764;2024-01-30T07:29:54;19.63;;;12.17;;
2434;SDS011;1228;51.022;6.764;2024-01-30T07:32:20;17.70;;;13.47;;
2434;SDS011;1228;51.022;6.764;2024-01-30T07:34:45;17.23;;;12.53;;
2434;SDS011;1228;51.022;6.764;2024-01-30T07:37:12;17.27;;;12.37;;
2434;SDS011;1228;51.022;6.764;2024-01-30T07:39:40;14.07;;;11.93;;
2434;SDS011;1228;51.022;6.764;2024-01-30T07:42:06;19.13;;;13.30;;
2434;SDS011;1228;51.022;6.764;2024-01-30T07:44:32;15.87;;;12.77;;
2434;SDS011;1228;51.022;6.764;2024-01-30T07:46:58;16.73;;;12.27;;
2434;SDS011;1228;51.022;6.764;2024-01-30T07:49:24;15.30;;;12.60;;
2434;SDS011;1228;51.022;6.764;2024-01-30T07:51:50;20.50;;;12.60;;
2434;SDS011;1228;51.022;6.764;2024-01-30T07:54:16;18.00;;;12.60;;
2434;SDS011;1228;51.022;6.764;2024-01-30T07:56:42;16.63;;;12.43;;
2434;SDS011;1228;51.022;6.764;2024-01-30T07:59:11;15.20;;;12.50;;
2434;SDS011;1228;51.022;6.764;2024-01-30T08:01:37;18.27;;;12.97;;
2434;SDS011;1228;51.022;6.764;2024-01-30T08:04:03;16.83;;;12.20;;
2434;SDS011;1228;51.022;6.764;2024-01-30T08:06:30;17.57;;;12.40;;
2434;SDS011;1228;51.022;6.764;2024-01-30T08:08:56;16.07;;;12.37;;
2434;SDS011;1228;51.022;6.764;2024-01-30T08:11:23;15.17;;;12.47;;
2434;SDS011;1228;51.022;6.764;2024-01-30T08:13:52;17.20;;;13.13;;
2434;SDS011;1228;51.022;6.764;2024-01-30T08:16:18;18.10;;;12.87;;
2434;SDS011;1228;51.022;6.764;2024-01-30T08:18:43;15.63;;;13.43;;
2434;SDS011;1228;51.022;6.764;2024-01-30T08:21:09;20.07;;;13.27;;
2434;SDS011;1228;51.022;6.764;2024-01-30T08:23:35;21.93;;;14.17;;
2434;SDS011;1228;51.022;6.764;2024-01-30T08:26:00;15.43;;;13.53;;
2434;SDS011;1228;51.022;6.764;2024-01-30T08:28:28;17.63;;;13.23;;
2434;SDS011;1228;51.022;6.764;2024-01-30T08:30:53;18.17;;;13.40;;
2434;SDS011;1228;51.022;6.764;2024-01-30T08:33:20;16.03;;;13.03;;
2434;SDS011;1228;51.022;6.764;2024-01-30T08:35:46;15.20;;;12.90;;
2434;SDS011;1228;51.022;6.764;2024-01-30T08:38:11;16.93;;;13.70;;
2434;SDS011;1228;51.022;6.764;2024-01-30T08:40:39;17.37;;;13.67;;
2434;SDS011;1228;51.022;6.764;2024-01-30T08:43:04;14.23;;;12.73;;
2434;SDS011;1228;51.022;6.764;2024-01-30T08:45:31;19.60;;;13.17;;
2434;SDS011;1228;51.022;6.764;2024-01-30T08:47:56;13.67;;;12.27;;
2434;SDS011;1228;51.022;6.764;2024-01-30T08:50:22;14.90;;;13.10;;
2434;SDS011;1228;51.022;6.764;2024-01-30T08:52:48;14.40;;;12.20;;
2434;SDS011;1228;51.022;6.764;2024-01-30T08:55:13;15.37;;;12.53;;
2434;SDS011;1228;51.022;6.764;2024-01-30T08:57:39;13.17;;;11.67;;
2434;SDS011;1228;51.022;6.764;2024-01-30T09:00:05;14.13;;;11.77;;
2434;SDS011;1228;51.022;6.764;2024-01-30T09:02:34;13.87;;;11.40;;
2434;SDS011;1228;51.022;6.764;2024-01-30T09:04:59;14.13;;;11.07;;
2434;SDS011;1228;51.022;6.764;2024-01-30T09:07:25;15.60;;;11.53;;
2434;SDS011;1228;51.022;6.764;2024-01-30T09:09:51;13.83;;;11.07;;
2434;SDS011;1228;51.022;6.764;2024-01-30T09:12:17;13.43;;;11.67;;
2434;SDS011;1228;51.022;6.764;2024-01-30T09:14:43;13.80;;;11.53;;
2434;SDS011;1228;51.022;6.764;2024-01-30T09:17:09;17.60;;;10.97;;
2434;SDS011;1228;51.022;6.764;2024-01-30T09:19:35;14.07;;;10.67;;
2434;SDS011;1228;51.022;6.764;2024-01-30T09:22:01;13.70;;;10.63;;
2434;SDS011;1228;51.022;6.764;2024-01-30T09:24:26;13.03;;;10.43;;
2434;SDS011;1228;51.022;6.764;2024-01-30T09:26:52;13.90;;;11.83;;
2434;SDS011;1228;51.022;6.764;2024-01-30T09:29:18;12.30;;;9.97;;
2434;SDS011;1228;51.022;6.764;2024-01-30T09:31:45;12.23;;;10.23;;
2434;SDS011;1228;51.022;6.764;2024-01-30T09:34:11;15.37;;;10.67;;
2434;SDS011;1228;51.022;6.764;2024-01-30T09:36:37;13.23;;;10.17;;
2434;SDS011;1228;51.022;6.764;2024-01-30T09:39:03;12.37;;;10.10;;
2434;SDS011;1228;51.022;6.764;2024-01-30T09:41:29;13.13;;;10.27;;
2434;SDS011;1228;51.022;6.764;2024-01-30T09:43:58;11.13;;;9.93;;
2434;SDS011;1228;51.022;6.764;2024-01-30T09:46:26;12.03;;;10.80;;
2434;SDS011;1228;51.022;6.764;2024-01-30T09:48:53;13.67;;;10.10;;
2434;SDS011;1228;51.022;6.764;2024-01-30T09:51:20;15.00;;;10.73;;
2434;SDS011;1228;51.022;6.764;2024-01-30T09:53:47;12.53;;;10.80;;
2434;SDS011;1228;51.022;6.764;2024-01-30T09:56:13;15.50;;;10.97;;
2434;SDS011;1228;51.022;6.764;2024-01-30T09:58:39;13.87;;;11.33;;
2434;SDS011;1228;51.022;6.764;2024-01-30T10:01:05;15.07;;;11.37;;
2434;SDS011;1228;51.022;6.764;2024-01-30T10:03:31;14.00;;;10.83;;
2434;SDS011;1228;51.022;6.764;2024-01-30T10:05:57;14.57;;;10.90;;
2434;SDS011;1228;51.022;6.764;2024-01-30T10:08:23;17.30;;;11.00;;
2434;SDS011;1228;51.022;6.764;2024-01-30T10:10:49;14.40;;;11.87;;
2434;SDS011;1228;51.022;6.764;2024-01-30T10:13:15;13.43;;;11.30;;
2434;SDS011;1228;51.022;6.764;2024-01-30T10:15:41;14.93;;;11.17;;
2434;SDS011;1228;51.022;6.764;2024-01-30T10:18:08;16.40;;;11.10;;
2434;SDS011;1228;51.022;6.764;2024-01-30T10:20:35;16.73;;;11.60;;
2434;SDS011;1228;51.022;6.764;2024-01-30T10:23:01;12.80;;;11.47;;
2434;SDS011;1228;51.022;6.764;2024-01-30T10:25:27;13.00;;;10.93;;
2434;SDS011;1228;51.022;6.764;2024-01-30T10:27:53;14.17;;;11.07;;
2434;SDS011;1228;51.022;6.764;2024-01-30T10:30:22;11.90;;;10.67;;
2434;SDS011;1228;51.022;6.764;2024-01-30T10:32:48;14.00;;;11.57;;
2434;SDS011;1228;51.022;6.764;2024-01-30T10:35:14;13.00;;;11.70;;
2434;SDS011;1228;51.022;6.764;2024-01-30T10:37:42;12.33;;;11.03;;
2434;SDS011;1228;51.022;6.764;2024-01-30T10:40:09;13.77;;;10.47;;
2434;SDS011;1228;51.022;6.764;2024-01-30T10:42:38;14.13;;;11.57;;
2434;SDS011;1228;51.022;6.764;2024-01-30T10:45:11;12.13;;;10.83;;
2434;SDS011;1228;51.022;6.764;2024-01-30T10:47:39;14.40;;;10.80;;
2434;SDS011;1228;51.022;6.764;2024-01-30T10:50:07;14.20;;;10.87;;
2434;SDS011;1228;51.022;6.764;2024-01-30T10:52:34;17.37;;;11.63;;
2434;SDS011;1228;51.022;6.764;2024-01-30T10:55:00;13.40;;;11.27;;
2434;SDS011;1228;51.022;6.764;2024-01-30T10:57:26;15.47;;;11.70;;
2434;SDS011;1228;51.022;6.764;2024-01-30T10:59:59;14.67;;;11.33;;
2434;SDS011;1228;51.022;6.764;2024-01-30T11:02:30;14.60;;;11.10;;
2434;SDS011;1228;51.022;6.764;2024-01-30T11:04:57;15.37;;;11.47;;
2434;SDS011;1228;51.022;6.764;2024-01-30T11:07:24;16.63;;;11.33;;
2434;SDS011;1228;51.022;6.764;2024-01-30T11:10:02;14.33;;;10.93;;
2434;SDS011;1228;51.022;6.764;2024-01-30T11:12:29;15.20;;;10.80;;
2434;SDS011;1228;51.022;6.764;2024-01-30T11:15:04;18.13;;;11.33;;
2434;SDS011;1228;51.022;6.764;2024-01-30T11:17:41;15.57;;;10.70;;
2434;SDS011;1228;51.022;6.764;2024-01-30T11:20:21;12.50;;;10.67;;
2434;SDS011;1228;51.022;6.764;2024-01-30T11:22:51;18.87;;;11.60;;
2434;SDS011;1228;51.022;6.764;2024-01-30T11:25:19;19.53;;;11.03;;
2434;SDS011;1228;51.022;6.764;2024-01-30T11:27:46;13.97;;;11.37;;
2434;SDS011;1228;51.022;6.764;2024-01-30T11:30:24;13.33;;;11.07;;
2434;SDS011;1228;51.022;6.764;2024-01-30T11:35:33;14.37;;;11.47;;
2434;SDS011;1228;51.022;6.764;2024-01-30T11:38:05;17.73;;;11.27;;
2434;SDS011;1228;51.022;6.764;2024-01-30T11:40:33;13.77;;;11.00;;
2434;SDS011;1228;51.022;6.764;2024-01-30T11:42:59;12.23;;;10.93;;
2434;SDS011;1228;51.022;6.764;2024-01-30T11:45:26;13.47;;;11.03;;
2434;SDS011;1228;51.022;6.764;2024-01-30T11:47:53;13.17;;;10.90;;
2434;SDS011;1228;51.022;6.764;2024-01-30T11:50:19;13.83;;;10.80;;
2434;SDS011;1228;51.022;6.764;2024-01-30T11:52:45;15.37;;;11.17;;
2434;SDS011;1228;51.022;6.764;2024-01-30T11:55:12;16.60;;;10.87;;
2434;SDS011;1228;51.022;6.764;2024-01-30T11:57:38;14.30;;;11.50;;
2434;SDS011;1228;51.022;6.764;2024-01-30T12:00:05;16.60;;;11.10;;
2434;SDS011;1228;51.022;6.764;2024-01-30T12:02:38;14.87;;;11.47;;
2434;SDS011;1228;51.022;6.764;2024-01-30T12:05:05;15.93;;;11.83;;
2434;SDS011;1228;51.022;6.764;2024-01-30T12:07:31;16.10;;;10.97;;
2434;SDS011;1228;51.022;6.764;2024-01-30T12:10:01;15.20;;;11.10;;
2434;SDS011;1228;51.022;6.764;2024-01-30T12:12:28;15.60;;;11.07;;
2434;SDS011;1228;51.022;6.764;2024-01-30T12:14:55;15.67;;;10.30;;
2434;SDS011;1228;51.022;6.764;2024-01-30T12:17:31;17.77;;;11.20;;
2434;SDS011;1228;51.022;6.764;2024-01-30T12:20:11;15.40;;;10.53;;
2434;SDS011;1228;51.022;6.764;2024-01-30T12:25:08;13.73;;;11.23;;
2434;SDS011;1228;51.022;6.764;2024-01-30T12:27:37;15.60;;;10.50;;
2434;SDS011;1228;51.022;6.764;2024-01-30T12:30:07;11.83;;;8.60;;
2434;SDS011;1228;51.022;6.764;2024-01-30T12:32:41;12.80;;;7.70;;
2434;SDS011;1228;51.022;6.764;2024-01-30T12:35:13;7.27;;;6.57;;
2434;SDS011;1228;51.022;6.764;2024-01-30T12:37:40;12.17;;;7.07;;
2434;SDS011;1228;51.022;6.764;2024-01-30T12:40:07;11.07;;;7.67;;
2434;SDS011;1228;51.022;6.764;2024-01-30T12:42:34;9.97;;;7.30;;
2434;SDS011;1228;51.022;6.764;2024-01-30T12:45:01;7.97;;;6.77;;
2434;SDS011;1228;51.022;6.764;2024-01-30T12:47:28;10.80;;;6.93;;
2434;SDS011;1228;51.022;6.764;2024-01-30T12:49:54;9.87;;;7.90;;
2434;SDS011;1228;51.022;6.764;2024-01-30T12:52:20;11.87;;;8.53;;
2434;SDS011;1228;51.022;6.764;2024-01-30T12:54:47;11.40;;;7.90;;
2434;SDS011;1228;51.022;6.764;2024-01-30T12:57:13;8.27;;;7.10;;
2434;SDS011;1228;51.022;6.764;2024-01-30T12:59:39;11.60;;;7.63;;
2434;SDS011;1228;51.022;6.764;2024-01-30T13:02:04;9.40;;;6.90;;
2434;SDS011;1228;51.022;6.764;2024-01-30T13:04:31;6.87;;;6.27;;
2434;SDS011;1228;51.022;6.764;2024-01-30T13:06:56;7.37;;;6.30;;
2434;SDS011;1228;51.022;6.764;2024-01-30T13:09:23;9.97;;;7.40;;
2434;SDS011;1228;51.022;6.764;2024-01-30T13:11:49;12.57;;;7.70;;
2434;SDS011;1228;51.022;6.764;2024-01-30T13:14:16;9.83;;;7.37;;
2434;SDS011;1228;51.022;6.764;2024-01-30T13:16:42;10.03;;;7.67;;
2434;SDS011;1228;51.022;6.764;2024-01-30T13:19:07;7.97;;;6.30;;
2434;SDS011;1228;51.022;6.764;2024-01-30T13:21:33;11.57;;;6.57;;
2434;SDS011;1228;51.022;6.764;2024-01-30T13:23:58;11.53;;;6.20;;
2434;SDS011;1228;51.022;6.764;2024-01-30T13:26:24;10.40;;;7.63;;
2434;SDS011;1228;51.022;6.764;2024-01-30T13:28:50;9.50;;;7.30;;
2434;SDS011;1228;51.022;6.764;2024-01-30T13:31:16;9.97;;;7.10;;
2434;SDS011;1228;51.022;6.764;2024-01-30T13:33:42;12.30;;;7.23;;
2434;SDS011;1228;51.022;6.764;2024-01-30T13:36:08;13.40;;;6.97;;
2434;SDS011;1228;51.022;6.764;2024-01-30T13:38:35;9.43;;;7.47;;
2434;SDS011;1228;51.022;6.764;2024-01-30T13:41:00;10.10;;;6.73;;
2434;SDS011;1228;51.022;6.764;2024-01-30T13:43:27;7.63;;;6.43;;
2434;SDS011;1228;51.022;6.764;2024-01-30T13:45:53;14.67;;;7.50;;
2434;SDS011;1228;51.022;6.764;2024-01-30T13:48:19;13.17;;;8.67;;
2434;SDS011;1228;51.022;6.764;2024-01-30T13:50:44;13.83;;;8.40;;
2434;SDS011;1228;51.022;6.764;2024-01-30T13:53:11;10.20;;;8.07;;
2434;SDS011;1228;51.022;6.764;2024-01-30T13:55:37;11.00;;;7.73;;
2434;SDS011;1228;51.022;6.764;2024-01-30T13:58:04;11.50;;;9.70;;
2434;SDS011;1228;51.022;6.764;2024-01-30T14:00:30;14.90;;;9.07;;
2434;SDS011;1228;51.022;6.764;2024-01-30T14:02:56;13.80;;;9.37;;
2434;SDS011;1228;51.022;6.764;2024-01-30T14:05:23;16.87;;;10.10;;
2434;SDS011;1228;51.022;6.764;2024-01-30T14:07:49;13.17;;;9.60;;
2434;SDS011;1228;51.022;6.764;2024-01-30T14:10:16;9.50;;;8.07;;
2434;SDS011;1228;51.022;6.764;2024-01-30T14:12:42;11.00;;;7.93;;
2434;SDS011;1228;51.022;6.764;2024-01-30T14:15:11;9.07;;;8.10;;
2434;SDS011;1228;51.022;6.764;2024-01-30T14:17:42;8.97;;;7.47;;
2434;SDS011;1228;51.022;6.764;2024-01-30T14:20:09;10.17;;;8.40;;
2434;SDS011;1228;51.022;6.764;2024-01-30T14:22:35;10.50;;;7.37;;
2434;SDS011;1228;51.022;6.764;2024-01-30T14:25:01;11.57;;;8.13;;
2434;SDS011;1228;51.022;6.764;2024-01-30T14:27:30;10.63;;;8.03;;
2434;SDS011;1228;51.022;6.764;2024-01-30T14:29:56;9.70;;;8.23;;
2434;SDS011;1228;51.022;6.764;2024-01-30T14:32:22;12.27;;;7.97;;
2434;SDS011;1228;51.022;6.764;2024-01-30T14:34:49;9.43;;;7.73;;
2434;SDS011;1228;51.022;6.764;2024-01-30T14:37:15;10.23;;;7.87;;
2434;SDS011;1228;51.022;6.764;2024-01-30T14:39:41;18.07;;;9.23;;
2434;SDS011;1228;51.022;6.764;2024-01-30T14:42:07;9.43;;;8.03;;
2434;SDS011;1228;51.022;6.764;2024-01-30T14:44:33;11.07;;;8.37;;
2434;SDS011;1228;51.022;6.764;2024-01-30T14:46:59;11.97;;;7.50;;
2434;SDS011;1228;51.022;6.764;2024-01-30T14:49:25;10.93;;;8.53;;
2434;SDS011;1228;51.022;6.764;2024-01-30T14:51:51;12.97;;;7.73;;